Portada
METAR-TAF:

METAR-TAF

Aeropuertos :

Henderson, Nevada, Estados Unidos

latitud: 35-58-35N, longitud: 115-07-58W, altitud: 749 m

Observación

El informe se hizo hace 1 hora y 2 minutos, a las 17:56 UTC
Viento 7 kt del este-noreste
Temperatura 34°C
Humedad 18%
Presión 1014 hPa
Visibilidad: 16.1 km
Cielo despejado

METAR: KHND 241756Z 07007KT 10SM CLR 34/06 A2993 RMK AO2 SLP099 T03440056 10344 20278 51008 $

Hora: 11:58 (18:58 UTC)

Pronóstico

El informe se hizo hace 1 hora y 38 minutos, a las 17:20 UTC
Pronóstico válido del 24 a las 18 UTC al 25 a las 18 UTC
Viento 8 kt del este
Visibilidad: 10 km
Cielo despejado
A partir de las 24 a las 2200 UTC
Viento 8 kt del sur-sureste
Visibilidad: 10 km
Cielo despejado
A partir de las 25 a las 0400 UTC
Viento 11 kt del sur
Visibilidad: 10 km
Cielo despejado

TAF: KHND 241720Z 2418/2518 08008KT P6SM SKC FM242200 15008KT P6SM SKC FM250400 19011KT P6SM SKC

Observaciones y pronósticos meteorológicos de más de 4000 aeropuertos (mensajes METAR y TAF).

Los puntos amarillos y rojos representan las estaciones disponibles.

Ponga el ratón en el punto deseado para ver el nombre de la estación.

Haga clic para ver las observaciones y los pronósticos meteorológicos.

Para cambiar el mapa : haga clic en los botones verdes con una cruz de color negro para hacer un zoom, en el botón verde con un guión para alejar o en las flechas verdes para mapas adyacentes.


METAR-TAF: